Time;durP1;ratioP1;P1;durP2;ratioP2;P2;SDS_P1;SDS_P2;PMS_P1;PMS_P2;Temp;Humidity;BMP_temperature;BMP_pressure;BME280_temperature;BME280_humidity;BME280_pressure;Samples;Min_cycle;Max_cycle;Signal;HPM_P1;HPM_P2
2022/11/24 00:01:27;;;;;;;33.17;4.18;;;;;;;8.05;100.00;100321.63;5064359;28;20031;-73
2022/11/24 00:04:10;;;;;;;37.08;5.80;;;;;;;7.99;100.00;100328.72;5065680;28;20040;-73
2022/11/24 00:06:36;;;;;;;32.28;4.70;;;;;;;8.00;100.00;100332.31;5063018;28;20656;-73
2022/11/24 00:09:03;;;;;;;32.42;6.65;;;;;;;7.96;100.00;100334.56;5046045;28;20033;-73
2022/11/24 00:11:32;;;;;;;26.17;4.93;;;;;;;7.93;100.00;100337.69;5063482;28;20130;-72
2022/11/24 00:13:57;;;;;;;23.58;5.15;;;;;;;7.91;100.00;100337.00;5058463;28;20036;-74
2022/11/24 00:16:32;;;;;;;33.20;5.70;;;;;;;7.90;100.00;100327.16;5061614;28;20035;-72
2022/11/24 00:19:00;;;;;;;28.75;4.70;;;;;;;7.91;100.00;100328.00;5061440;28;20459;-73
2022/11/24 00:21:29;;;;;;;25.95;4.00;;;;;;;7.87;100.00;100326.69;5044284;28;20016;-73
2022/11/24 00:23:54;;;;;;;22.38;4.57;;;;;;;7.79;100.00;100322.19;5044561;28;20383;-76
2022/11/24 00:26:22;;;;;;;43.90;5.32;;;;;;;7.77;100.00;100317.97;5060748;28;20036;-74
2022/11/24 00:28:49;;;;;;;23.02;3.90;;;;;;;7.78;100.00;100316.94;5047247;28;20024;-72
2022/11/24 00:31:18;;;;;;;;;;;;;;;7.81;100.00;100324.75;5059886;28;20036;-72
2022/11/24 00:33:43;;;;;;;;;;;;;;;7.88;100.00;100333.81;5046126;28;19917;-72
2022/11/24 00:36:09;;;;;;;29.63;5.38;;;;;;;7.88;100.00;100334.69;5063714;28;20535;-72
2022/11/24 00:38:34;;;;;;;17.38;3.75;;;;;;;7.92;100.00;100335.13;5065896;28;20035;-70
2022/11/24 00:41:01;;;;;;;31.02;5.32;;;;;;;7.83;100.00;100339.88;5040836;28;20052;-73
2022/11/24 00:43:26;;;;;;;26.50;5.30;;;;;;;7.80;100.00;100348.41;5060566;28;20054;-74
2022/11/24 00:45:51;;;;;;;26.45;4.60;;;;;;;7.80;100.00;100351.13;5045113;28;20035;-72
2022/11/24 00:48:17;;;;;;;24.92;3.83;;;;;;;7.85;100.00;100354.13;5064808;28;20158;-72
2022/11/24 00:50:42;;;;;;;27.60;4.07;;;;;;;7.90;100.00;100350.84;5048344;28;20472;-75
2022/11/24 00:53:08;;;;;;;29.33;4.15;;;;;;;7.92;100.00;100351.50;5062078;28;20031;-72
2022/11/24 00:55:33;;;;;;;25.13;4.50;;;;;;;8.00;100.00;100354.13;5040780;28;20472;-72
2022/11/24 00:57:58;;;;;;;33.92;4.93;;;;;;;8.01;100.00;100350.34;5062839;28;20031;-71
2022/11/24 01:00:25;;;;;;;19.27;4.22;;;;;;;8.09;100.00;100359.25;5058689;28;20065;-71
2022/11/24 01:02:51;;;;;;;22.15;4.22;;;;;;;8.15;100.00;100360.34;5063017;28;20052;-71
2022/11/24 01:05:16;;;;;;;26.67;4.63;;;;;;;8.15;100.00;100358.47;5062126;28;20107;-74
2022/11/24 01:07:42;;;;;;;23.02;3.83;;;;;;;8.13;100.00;100363.28;5064266;28;20111;-73
2022/11/24 01:10:07;;;;;;;23.80;3.60;;;;;;;8.25;100.00;100352.72;5043088;28;20112;-72
2022/11/24 01:12:33;;;;;;;17.35;3.25;;;;;;;8.28;100.00;100353.19;5063189;28;20029;-71
2022/11/24 01:14:59;;;;;;;15.30;3.33;;;;;;;8.28;100.00;100353.19;5059192;28;20020;-72
2022/11/24 01:17:25;;;;;;;20.38;4.00;;;;;;;8.36;100.00;100363.97;5043549;28;20063;-70
2022/11/24 01:19:50;;;;;;;36.30;3.47;;;;;;;8.45;99.77;100367.41;5063727;28;20024;-73
2022/11/24 01:22:16;;;;;;;22.95;3.42;;;;;;;8.40;100.00;100370.75;5045917;28;20402;-72
2022/11/24 01:24:41;;;;;;;16.35;3.72;;;;;;;8.42;100.00;100378.72;5067228;28;20039;-71
2022/11/24 01:27:07;;;;;;;19.33;4.10;;;;;;;8.47;99.95;100376.25;5066589;28;20388;-72
2022/11/24 01:29:32;;;;;;;21.90;4.65;;;;;;;8.35;100.00;100378.66;5048269;28;20093;-71
2022/11/24 01:31:57;;;;;;;26.42;5.00;;;;;;;8.40;100.00;100378.94;5065250;28;20033;-74
2022/11/24 01:34:23;;;;;;;24.85;4.05;;;;;;;8.44;100.00;100390.28;5068018;28;20068;-72
2022/11/24 01:36:48;;;;;;;19.70;3.83;;;;;;;8.41;100.00;100407.03;5063599;28;20025;-71
2022/11/24 01:39:13;;;;;;;18.98;4.28;;;;;;;8.40;100.00;100408.09;5048067;28;20179;-71
2022/11/24 01:41:39;;;;;;;20.67;3.83;;;;;;;8.32;100.00;100394.59;5065608;28;20123;-72
2022/11/24 01:44:25;;;;;;;17.92;3.90;;;;;;;8.39;100.00;100396.31;5066685;28;20085;-71
2022/11/24 01:47:12;;;;;;;21.25;3.40;;;;;;;8.37;100.00;100392.09;5065844;28;20031;-74
2022/11/24 01:49:45;;;;;;;19.73;3.63;;;;;;;8.39;99.94;100392.75;5066487;28;20021;-71
2022/11/24 01:52:20;;;;;;;24.55;3.95;;;;;;;8.35;100.00;100395.03;5066407;28;20400;-72
2022/11/24 01:54:52;;;;;;;22.48;5.10;;;;;;;8.40;99.84;100397.19;5064803;28;20025;-72
2022/11/24 01:57:29;;;;;;;27.25;4.43;;;;;;;8.33;99.62;100388.09;5063052;28;20036;-71
2022/11/24 01:59:59;;;;;;;24.55;3.78;;;;;;;8.40;99.58;100398.03;5050713;28;20082;-72
2022/11/24 02:02:28;;;;;;;22.65;3.90;;;;;;;8.37;99.63;100403.00;5064121;28;20476;-71
2022/11/24 02:05:01;;;;;;;21.15;4.15;;;;;;;8.45;99.15;100397.44;5049744;28;20037;-72
2022/11/24 02:07:26;;;;;;;16.30;3.20;;;;;;;8.45;98.94;100400.16;5062985;28;20020;-72
2022/11/24 02:09:56;;;;;;;17.13;3.35;;;;;;;8.45;98.32;100406.47;5049041;28;20028;-71
2022/11/24 02:12:25;;;;;;;25.35;3.78;;;;;;;8.43;98.81;100418.63;5045344;28;20056;-72
2022/11/24 02:14:52;;;;;;;21.60;3.30;;;;;;;8.46;98.65;100418.22;5067234;28;20032;-72
2022/11/24 02:17:17;;;;;;;20.88;5.05;;;;;;;8.43;98.13;100429.53;5048514;28;20044;-70
2022/11/24 02:19:54;;;;;;;22.17;2.95;;;;;;;8.42;98.03;100438.75;5066725;28;20060;-70
2022/11/24 02:22:28;;;;;;;14.43;3.42;;;;;;;8.36;97.98;100428.59;5065491;28;20709;-72
2022/11/24 02:25:02;;;;;;;12.65;2.55;;;;;;;8.34;97.21;100426.06;5051497;28;20286;-73
2022/11/24 02:27:27;;;;;;;11.98;3.05;;;;;;;8.39;96.35;100430.97;5062151;28;20020;-73
2022/11/24 02:29:53;;;;;;;10.32;2.38;;;;;;;8.34;95.37;100436.16;5067912;28;20031;-72
2022/11/24 02:32:19;;;;;;;7.35;2.30;;;;;;;8.34;95.63;100433.44;5065538;28;20078;-73
2022/11/24 02:34:44;;;;;;;12.15;2.17;;;;;;;8.29;95.55;100433.16;5046751;28;20067;-70
2022/11/24 02:37:10;;;;;;;8.50;1.50;;;;;;;8.27;96.02;100432.53;5062565;28;20516;-70
2022/11/24 02:39:35;;;;;;;8.60;1.58;;;;;;;8.24;95.73;100435.63;5063702;28;20024;-71
2022/11/24 02:42:06;;;;;;;4.63;1.17;;;;;;;8.30;94.90;100443.03;5065614;28;20027;-71
2022/11/24 02:44:37;;;;;;;10.77;2.53;;;;;;;8.22;95.68;100454.91;5051097;28;20069;-71
2022/11/24 02:47:08;;;;;;;6.78;1.65;;;;;;;8.26;95.95;100444.44;5063781;28;20426;-70
2022/11/24 02:49:34;;;;;;;11.48;2.20;;;;;;;8.30;96.20;100446.63;5046025;28;20028;-71
2022/11/24 02:52:00;;;;;;;7.28;2.00;;;;;;;8.30;96.63;100453.94;5050315;28;20086;-74
2022/11/24 02:54:25;;;;;;;10.18;2.58;;;;;;;8.26;98.00;100452.63;5063026;28;20106;-71
2022/11/24 02:56:51;;;;;;;12.45;2.75;;;;;;;8.28;98.40;100458.75;5065440;28;20418;-72
2022/11/24 02:59:18;;;;;;;22.20;4.32;;;;;;;8.26;98.35;100450.75;5062741;28;20032;-71
2022/11/24 03:01:43;;;;;;;;;;;;;;;8.29;98.95;100455.00;5066166;28;20028;-71
2022/11/24 03:04:09;;;;;;;21.65;3.80;;;;;;;8.40;98.48;100462.66;5064299;28;19916;-71
2022/11/24 03:06:34;;;;;;;20.10;4.05;;;;;;;8.37;99.06;100463.91;5061135;28;20408;-71
2022/11/24 03:08:59;;;;;;;24.98;4.20;;;;;;;8.44;98.56;100464.81;5050953;28;20142;-73
2022/11/24 03:11:25;;;;;;;18.73;3.40;;;;;;;8.47;98.14;100466.31;5060735;28;20119;-70
2022/11/24 03:13:50;;;;;;;23.13;4.35;;;;;;;8.45;98.92;100471.13;5043761;28;20442;-72
2022/11/24 03:16:16;;;;;;;20.60;3.63;;;;;;;8.49;98.34;100477.91;5063873;28;20357;-71
2022/11/24 03:18:41;;;;;;;22.55;4.30;;;;;;;8.47;99.05;100469.03;5067243;28;20060;-72
2022/11/24 03:21:06;;;;;;;31.63;4.93;;;;;;;8.52;99.00;100477.50;5062743;28;20020;-72
2022/11/24 03:23:32;;;;;;;26.38;4.28;;;;;;;8.54;98.83;100480.91;5062121;28;20069;-72
2022/11/24 03:26:16;;;;;;;25.50;4.15;;;;;;;8.56;99.40;100476.94;5046719;28;20506;-72
2022/11/24 03:28:41;;;;;;;32.42;5.40;;;;;;;8.52;100.00;100480.22;5056622;28;20040;-72
2022/11/24 03:31:07;;;;;;;28.65;4.18;;;;;;;8.48;100.00;100482.50;5066889;28;20021;-72
2022/11/24 03:33:33;;;;;;;21.40;3.93;;;;;;;8.41;100.00;100480.72;5064403;28;20025;-72
2022/11/24 03:35:59;;;;;;;24.45;3.85;;;;;;;8.45;100.00;100487.50;5063627;28;20514;-74
2022/11/24 03:38:24;;;;;;;23.00;4.20;;;;;;;8.36;100.00;100491.38;5064187;28;20037;-71
2022/11/24 03:40:50;;;;;;;21.20;3.70;;;;;;;8.27;100.00;100484.34;5049180;28;20025;-72
2022/11/24 03:43:15;;;;;;;18.13;3.75;;;;;;;8.39;100.00;100491.00;5064037;28;20028;-71
2022/11/24 03:45:44;;;;;;;19.17;4.47;;;;;;;8.29;100.00;100488.59;5065295;28;20077;-71
2022/11/24 03:48:09;;;;;;;23.17;4.85;;;;;;;8.32;100.00;100485.47;5064084;28;20039;-73
2022/11/24 03:50:35;;;;;;;19.42;3.95;;;;;;;8.33;100.00;100500.78;5063843;28;20029;-71
2022/11/24 03:53:00;;;;;;;20.70;3.65;;;;;;;8.27;100.00;100495.28;5061262;28;20024;-71
2022/11/24 03:55:26;;;;;;;24.17;3.90;;;;;;;8.28;100.00;100511.44;5060959;28;20036;-72
2022/11/24 03:57:51;;;;;;;30.13;3.80;;;;;;;8.22;100.00;100514.09;5047806;28;20024;-72
2022/11/24 04:00:16;;;;;;;20.05;3.97;;;;;;;8.17;100.00;100522.78;5068160;28;20403;-73
2022/11/24 04:02:42;;;;;;;13.20;3.47;;;;;;;8.10;100.00;100513.69;5065716;28;20025;-73
2022/11/24 04:05:08;;;;;;;17.05;2.80;;;;;;;8.06;100.00;100525.19;5062547;28;20033;-72
2022/11/24 04:07:34;;;;;;;17.07;2.33;;;;;;;8.04;100.00;100532.69;5048986;28;20067;-72
2022/11/24 04:10:02;;;;;;;16.05;2.40;;;;;;;7.94;100.00;100537.56;5050068;28;20759;-73
2022/11/24 04:12:43;;;;;;;8.95;2.00;;;;;;;7.94;100.00;100532.97;5065217;28;20036;-73
2022/11/24 04:15:16;;;;;;;13.98;2.42;;;;;;;7.88;100.00;100546.50;5065222;28;20447;-73
2022/11/24 04:17:45;;;;;;;10.50;2.42;;;;;;;7.83;100.00;100547.06;5063470;28;20071;-74
2022/11/24 04:20:14;;;;;;;10.15;2.28;;;;;;;7.82;100.00;100549.97;5046376;28;20500;-74
2022/11/24 04:22:40;;;;;;;17.70;3.70;;;;;;;7.82;100.00;100549.97;5060331;28;20042;-75
2022/11/24 04:25:24;;;;;;;15.65;2.90;;;;;;;7.87;100.00;100550.28;5064956;28;20028;-74
2022/11/24 04:27:52;;;;;;;9.70;2.45;;;;;;;7.86;100.00;100554.88;5046958;28;20020;-74
2022/11/24 04:30:30;;;;;;;10.45;2.65;;;;;;;7.76;100.00;100564.38;5061326;28;20479;-74
2022/11/24 04:33:23;;;;;;;16.25;2.92;;;;;;;7.78;100.00;100570.47;5038444;28;20074;-74
2022/11/24 04:35:55;;;;;;;11.88;2.38;;;;;;;7.71;100.00;100566.78;5060653;28;20038;-73
2022/11/24 04:38:35;;;;;;;8.45;2.08;;;;;;;7.67;100.00;100570.91;5064986;28;20142;-74
2022/11/24 04:41:07;;;;;;;6.25;2.47;;;;;;;7.63;100.00;100569.63;5061777;28;20032;-74
2022/11/24 04:43:33;;;;;;;11.45;2.08;;;;;;;7.63;100.00;100577.81;5040740;28;20033;-74
2022/11/24 04:46:07;;;;;;;10.80;2.28;;;;;;;7.57;100.00;100579.38;5062517;28;20025;-75
2022/11/24 04:48:47;;;;;;;10.65;1.70;;;;;;;7.51;100.00;100581.97;5045135;28;20024;-74
2022/11/24 04:54:13;;;;;;;5.60;1.63;;;;;;;7.46;100.00;100588.00;5065294;28;20034;-75
2022/11/24 04:56:44;;;;;;;9.75;1.67;;;;;;;7.40;100.00;100591.44;5044825;28;20551;-74
2022/11/24 04:59:16;;;;;;;12.68;1.67;;;;;;;7.44;100.00;100609.13;5058956;28;20037;-74
2022/11/24 05:01:43;;;;;;;7.55;2.00;;;;;;;7.38;100.00;100611.72;5061496;28;20372;-73
2022/11/24 05:04:16;;;;;;;3.22;1.40;;;;;;;7.39;100.00;100617.00;5041582;28;20032;-74
2022/11/24 05:06:47;;;;;;;6.30;1.73;;;;;;;7.35;100.00;100612.94;5045887;28;20040;-74
2022/11/24 05:09:14;;;;;;;4.30;1.58;;;;;;;7.41;100.00;100616.81;5061181;28;20481;-74
2022/11/24 05:11:43;;;;;;;;;;;;;;;7.42;100.00;100618.53;5064468;28;20547;-74
2022/11/24 05:14:20;;;;;;;7.65;2.58;;;;;;;7.47;100.00;100627.00;5059780;28;19916;-74
2022/11/24 05:16:48;;;;;;;13.63;2.33;;;;;;;7.48;100.00;100628.69;5045119;28;20029;-73
2022/11/24 05:19:38;;;;;;;12.80;2.42;;;;;;;7.42;100.00;100629.41;5043960;28;20534;-74
2022/11/24 05:22:10;;;;;;;12.57;2.95;;;;;;;7.48;100.00;100642.31;5061379;28;20052;-75
2022/11/24 05:24:41;;;;;;;7.45;2.00;;;;;;;7.48;100.00;100642.31;5049430;28;20411;-74
2022/11/24 05:27:06;;;;;;;15.07;3.35;;;;;;;7.49;100.00;100653.03;5060369;28;20098;-73
2022/11/24 05:29:43;;;;;;;8.40;2.38;;;;;;;7.48;100.00;100662.22;5063285;28;20484;-73
2022/11/24 05:32:21;;;;;;;11.27;2.88;;;;;;;7.43;100.00;100666.53;5060700;28;20495;-73
2022/11/24 05:37:54;;;;;;;10.23;2.65;;;;;;;7.47;100.00;100670.59;5060648;28;20052;-73
2022/11/24 05:40:30;;;;;;;11.82;2.45;;;;;;;7.47;100.00;100670.59;5060444;28;20021;-73
2022/11/24 05:42:55;;;;;;;11.85;2.58;;;;;;;7.46;100.00;100671.59;5058543;28;20506;-74
2022/11/24 05:45:27;;;;;;;14.20;2.50;;;;;;;7.40;100.00;100678.63;5061100;28;20040;-74
2022/11/24 05:47:53;;;;;;;16.45;4.10;;;;;;;7.38;100.00;100677.13;5064457;28;20114;-73
2022/11/24 05:50:27;;;;;;;7.72;2.30;;;;;;;7.38;100.00;100680.69;5046153;28;20036;-72
2022/11/24 05:52:52;;;;;;;10.05;2.63;;;;;;;7.47;100.00;100684.22;5061719;28;20440;-73
2022/11/24 05:55:18;;;;;;;7.30;3.15;;;;;;;7.44;100.00;100688.16;5064690;28;20040;-73
2022/11/24 05:57:44;;;;;;;9.77;3.08;;;;;;;7.44;100.00;100690.03;5062098;28;20029;-73
2022/11/24 06:00:10;;;;;;;7.53;3.28;;;;;;;7.45;100.00;100688.97;5058140;28;20471;-73
2022/11/24 06:02:35;;;;;;;11.02;2.90;;;;;;;7.40;100.00;100699.56;5040141;28;20021;-74
2022/11/24 06:05:01;;;;;;;7.88;3.75;;;;;;;7.31;100.00;100693.34;5057224;28;20032;-73
2022/11/24 06:07:26;;;;;;;8.95;3.20;;;;;;;7.24;100.00;100696.97;5042927;28;20450;-73
2022/11/24 06:09:51;;;;;;;8.00;2.90;;;;;;;7.17;100.00;100710.47;5062311;28;20032;-74
2022/11/24 06:12:17;;;;;;;8.55;3.58;;;;;;;7.15;100.00;100708.94;5062228;28;20111;-73
2022/11/24 06:14:42;;;;;;;8.10;4.03;;;;;;;7.11;100.00;100716.59;5064389;28;20060;-74
2022/11/24 06:17:09;;;;;;;10.05;3.92;;;;;;;7.07;100.00;100718.00;5044555;28;20021;-73
2022/11/24 06:19:34;;;;;;;7.28;3.53;;;;;;;7.04;100.00;100723.78;5035639;28;20037;-73
2022/11/24 06:22:00;;;;;;;7.47;3.38;;;;;;;6.98;100.00;100720.91;5058604;28;20106;-73
2022/11/24 06:24:25;;;;;;;13.07;3.90;;;;;;;6.98;100.00;100726.38;5060890;28;20695;-73
2022/11/24 06:26:51;;;;;;;12.93;4.25;;;;;;;6.99;100.00;100725.38;5042629;28;20078;-76
2022/11/24 06:29:16;;;;;;;10.32;4.47;;;;;;;7.03;100.00;100737.59;5065823;28;20063;-74
2022/11/24 06:31:41;;;;;;;8.02;3.33;;;;;;;7.12;100.00;100740.13;5064408;28;20035;-75
2022/11/24 06:34:10;;;;;;;16.98;4.13;;;;;;;7.07;100.00;100741.66;5064140;28;20158;-74
2022/11/24 06:36:36;;;;;;;13.75;4.75;;;;;;;7.03;100.00;100754.78;5048379;28;20396;-74
2022/11/24 06:39:03;;;;;;;13.48;4.13;;;;;;;7.06;100.00;100753.56;5066490;28;20027;-74
2022/11/24 06:41:29;;;;;;;9.32;3.72;;;;;;;7.12;100.00;100763.75;5063762;28;20464;-75
2022/11/24 06:43:54;;;;;;;9.80;3.63;;;;;;;7.19;100.00;100767.47;5046035;28;20033;-74
2022/11/24 06:46:19;;;;;;;13.30;5.40;;;;;;;7.24;100.00;100773.22;5046148;28;20025;-73
2022/11/24 06:48:46;;;;;;;11.90;4.55;;;;;;;7.22;100.00;100772.56;5065487;28;20418;-73
2022/11/24 06:51:12;;;;;;;7.47;3.43;;;;;;;7.19;100.00;100778.34;5066658;28;20024;-74
2022/11/24 06:53:38;;;;;;;11.25;3.78;;;;;;;7.22;100.00;100792.47;5065297;28;20041;-73
2022/11/24 06:56:12;;;;;;;8.82;3.38;;;;;;;7.21;100.00;100784.50;5065399;28;20039;-73
2022/11/24 06:58:43;;;;;;;12.80;4.25;;;;;;;7.28;100.00;100790.91;5058234;28;20037;-74
2022/11/24 07:01:12;;;;;;;12.68;3.70;;;;;;;7.30;100.00;100794.31;5048432;28;20028;-73
2022/11/24 07:03:37;;;;;;;12.27;3.15;;;;;;;7.30;100.00;100794.31;5063752;28;20079;-73
2022/11/24 07:06:03;;;;;;;15.43;3.40;;;;;;;7.33;100.00;100807.59;5062692;28;20041;-73
2022/11/24 07:08:28;;;;;;;7.60;2.72;;;;;;;7.40;100.00;100814.00;5062398;28;20047;-73
2022/11/24 07:10:54;;;;;;;10.50;2.95;;;;;;;7.33;100.00;100818.50;5065368;28;20447;-75
2022/11/24 07:13:19;;;;;;;11.13;3.00;;;;;;;7.37;100.00;100817.94;5060109;28;20638;-73
2022/11/24 07:15:45;;;;;;;12.98;2.63;;;;;;;7.46;100.00;100816.03;5061245;28;20369;-73
2022/11/24 07:18:11;;;;;;;17.17;2.50;;;;;;;7.46;100.00;100816.88;5057688;28;20119;-72
2022/11/24 07:20:36;;;;;;;13.77;2.92;;;;;;;7.37;100.00;100822.56;5061894;28;20112;-71
2022/11/24 07:23:01;;;;;;;12.15;2.35;;;;;;;7.33;100.00;100826.66;5049713;28;20065;-73
2022/11/24 07:25:27;;;;;;;14.57;2.40;;;;;;;7.32;100.00;100827.69;5064197;28;20021;-73
2022/11/24 07:27:59;;;;;;;19.13;2.55;;;;;;;7.30;100.00;100848.78;5061794;28;20046;-73
2022/11/24 07:30:27;;;;;;;19.90;3.38;;;;;;;7.21;100.00;100860.78;5062726;28;20056;-72
2022/11/24 07:32:58;;;;;;;8.32;2.35;;;;;;;7.17;100.00;100849.38;5062901;28;20033;-72
2022/11/24 07:35:23;;;;;;;13.30;3.35;;;;;;;7.17;100.00;100853.97;5043265;28;20032;-72
2022/11/24 07:37:48;;;;;;;14.45;3.22;;;;;;;7.19;100.00;100862.78;5044966;28;20025;-74
2022/11/24 07:40:14;;;;;;;18.15;3.60;;;;;;;7.19;100.00;100868.25;5064975;28;20094;-72
2022/11/24 07:42:39;;;;;;;15.82;3.38;;;;;;;7.14;100.00;100870.63;5062909;28;20483;-73
2022/11/24 07:45:05;;;;;;;17.33;2.70;;;;;;;7.16;100.00;100879.50;5061942;28;20085;-73
2022/11/24 07:47:31;;;;;;;13.32;2.78;;;;;;;7.17;100.00;100881.19;5064024;28;20487;-73
2022/11/24 07:49:56;;;;;;;13.50;2.40;;;;;;;7.18;100.00;100880.16;5057774;28;20123;-75
2022/11/24 07:52:25;;;;;;;21.17;2.42;;;;;;;7.16;100.00;100888.50;5057362;28;20086;-75
2022/11/24 07:54:50;;;;;;;19.67;2.95;;;;;;;7.16;100.00;100884.94;5065368;28;20497;-73
2022/11/24 07:57:16;;;;;;;19.80;3.00;;;;;;;7.14;100.00;100893.28;5062048;28;20116;-74
2022/11/24 07:59:41;;;;;;;20.05;3.75;;;;;;;7.14;100.00;100892.44;5060916;28;20024;-74
2022/11/24 08:02:09;;;;;;;12.68;3.22;;;;;;;7.24;100.00;100913.03;5056859;28;20123;-74
2022/11/24 08:04:35;;;;;;;21.08;3.17;;;;;;;7.22;100.00;100906.03;5055591;28;20062;-73
2022/11/24 08:07:01;;;;;;;16.35;2.92;;;;;;;7.22;100.00;100908.78;5063199;28;20039;-73
2022/11/24 08:09:26;;;;;;;17.98;3.88;;;;;;;7.20;100.00;100906.22;5062682;28;20032;-72
2022/11/24 08:11:52;;;;;;;19.70;3.45;;;;;;;7.20;100.00;100911.66;5062558;28;20032;-73
2022/11/24 08:14:17;;;;;;;15.38;2.38;;;;;;;7.17;100.00;100924.78;5064123;28;20030;-72
2022/11/24 08:16:42;;;;;;;24.95;3.42;;;;;;;7.15;100.00;100921.41;5064954;28;20080;-72
2022/11/24 08:19:10;;;;;;;11.43;2.45;;;;;;;7.28;100.00;100928.00;5060698;28;20071;-73
2022/11/24 08:21:36;;;;;;;26.45;4.22;;;;;;;7.34;100.00;100931.88;5061705;28;20459;-71
2022/11/24 08:24:01;;;;;;;14.20;2.80;;;;;;;7.40;100.00;100934.78;5043761;28;20135;-73
2022/11/24 08:26:26;;;;;;;19.27;3.42;;;;;;;7.32;100.00;100937.50;5061681;28;20127;-75
2022/11/24 08:28:57;;;;;;;14.25;2.85;;;;;;;7.35;100.00;100942.63;5040909;28;20388;-73
2022/11/24 08:31:26;;;;;;;17.45;3.28;;;;;;;7.39;100.00;100945.84;5063432;28;20475;-73
2022/11/24 08:33:54;;;;;;;14.10;3.28;;;;;;;7.40;100.00;100947.53;5060100;28;20476;-73
2022/11/24 08:36:20;;;;;;;24.52;3.72;;;;;;;7.37;100.00;100958.78;5065434;28;20105;-71
2022/11/24 08:38:45;;;;;;;27.10;3.45;;;;;;;7.36;100.00;100962.56;5063817;28;20075;-72
2022/11/24 08:41:14;;;;;;;19.13;3.53;;;;;;;7.39;100.00;100960.31;5066647;28;20036;-72
2022/11/24 08:43:39;;;;;;;17.27;2.95;;;;;;;7.44;100.00;100967.97;5059184;28;20042;-71
2022/11/24 08:46:07;;;;;;;11.25;2.65;;;;;;;7.47;100.00;100971.19;5059838;28;20555;-72
2022/11/24 08:48:34;;;;;;;21.40;3.90;;;;;;;7.59;100.00;100971.69;5057949;28;20029;-74
2022/11/24 08:51:06;;;;;;;21.15;3.10;;;;;;;7.57;100.00;100970.97;5060147;28;20365;-73
2022/11/24 08:53:31;;;;;;;15.52;3.50;;;;;;;7.60;100.00;100970.66;5059842;28;20028;-71
2022/11/24 08:56:00;;;;;;;18.08;3.20;;;;;;;7.61;100.00;100975.06;5062540;28;20044;-73
2022/11/24 08:58:27;;;;;;;22.40;3.17;;;;;;;7.70;100.00;100987.66;5061549;28;20036;-72
2022/11/24 09:00:52;;;;;;;14.55;2.95;;;;;;;7.69;100.00;100984.06;5061697;28;20043;-73
2022/11/24 09:03:18;;;;;;;17.33;3.20;;;;;;;7.70;100.00;100991.22;5057264;28;20488;-73
2022/11/24 09:05:43;;;;;;;21.48;3.22;;;;;;;7.76;100.00;101003.31;5056159;28;20121;-72
2022/11/24 09:08:08;;;;;;;19.13;3.50;;;;;;;7.79;100.00;101001.06;5060100;28;20020;-74
2022/11/24 09:10:34;;;;;;;19.73;3.35;;;;;;;7.86;100.00;101003.97;5043081;28;20039;-73
2022/11/24 09:13:00;;;;;;;31.73;3.85;;;;;;;7.86;100.00;101010.25;5060982;28;20028;-73
2022/11/24 09:15:25;;;;;;;15.40;3.05;;;;;;;7.78;100.00;101014.88;5043483;28;20433;-71
2022/11/24 09:17:50;;;;;;;25.70;3.75;;;;;;;7.81;100.00;101011.81;5061004;28;20460;-74
2022/11/24 09:20:16;;;;;;;20.77;3.25;;;;;;;7.92;100.00;101022.34;5042364;28;20029;-73
2022/11/24 09:22:42;;;;;;;22.80;3.47;;;;;;;8.00;100.00;101028.59;5059825;28;20035;-71
2022/11/24 09:25:08;;;;;;;23.65;4.28;;;;;;;7.96;100.00;101038.16;5058062;28;20032;-73
2022/11/24 09:27:34;;;;;;;17.17;4.20;;;;;;;8.02;100.00;101036.63;5057252;28;20029;-72
2022/11/24 09:29:59;;;;;;;21.75;4.32;;;;;;;7.99;100.00;101042.41;5061908;28;20616;-74
2022/11/24 09:32:24;;;;;;;21.73;4.10;;;;;;;8.09;100.00;101048.53;5042631;28;20107;-75
2022/11/24 09:34:50;;;;;;;18.02;4.13;;;;;;;8.08;100.00;101057.75;5040309;28;20708;-74
2022/11/24 09:37:16;;;;;;;21.35;5.03;;;;;;;8.06;100.00;101066.09;5041332;28;20029;-73
2022/11/24 09:39:42;;;;;;;18.45;3.60;;;;;;;8.09;100.00;101062.16;5062255;28;20056;-73
2022/11/24 09:42:14;;;;;;;23.70;5.65;;;;;;;8.17;100.00;101062.97;5060800;28;20445;-73
2022/11/24 09:45:06;;;;;;;29.08;5.30;;;;;;;8.19;100.00;101066.41;5061633;28;20039;-75
2022/11/24 09:47:43;;;;;;;18.95;4.30;;;;;;;8.22;100.00;101079.72;5045286;28;20028;-75
2022/11/24 09:50:24;;;;;;;15.07;4.68;;;;;;;8.29;100.00;101075.25;5064341;28;20115;-74
2022/11/24 09:53:17;;;;;;;20.90;4.55;;;;;;;8.25;100.00;101081.22;5046312;28;20033;-73
2022/11/24 09:55:52;;;;;;;16.90;4.55;;;;;;;8.26;100.00;101082.94;5046993;28;20534;-73
2022/11/24 09:58:47;;;;;;;18.90;3.88;;;;;;;8.36;100.00;101087.16;5063609;28;20028;-73
2022/11/24 10:01:17;;;;;;;16.10;4.30;;;;;;;8.36;99.79;101083.56;5062796;28;20404;-73
2022/11/24 10:03:45;;;;;;;20.58;3.88;;;;;;;8.40;99.97;101082.19;5064283;28;20104;-72
2022/11/24 10:06:44;;;;;;;20.55;4.57;;;;;;;8.52;99.91;101089.81;5043672;28;20063;-72
2022/11/24 10:09:23;;;;;;;21.15;4.72;;;;;;;8.57;100.00;101095.59;5053820;28;20399;-74
2022/11/24 10:11:51;;;;;;;20.85;3.22;;;;;;;8.67;98.82;101098.09;5056316;28;20117;-75
2022/11/24 10:14:27;;;;;;;25.35;4.40;;;;;;;8.65;98.43;101105.63;5042916;28;20029;-73
2022/11/24 10:17:21;;;;;;;22.48;4.00;;;;;;;8.80;99.03;101112.03;5051426;28;20595;-74
2022/11/24 10:19:59;;;;;;;18.92;4.13;;;;;;;8.89;98.46;101103.59;5060804;28;20040;-72
2022/11/24 10:22:33;;;;;;;21.92;4.78;;;;;;;8.97;98.63;101106.28;5064938;28;20365;-72
2022/11/24 10:25:25;;;;;;;20.02;4.40;;;;;;;9.07;98.95;101108.78;5060879;28;20579;-74
2022/11/24 10:28:16;;;;;;;27.33;4.22;;;;;;;9.13;97.32;101108.06;5063988;28;20501;-72
2022/11/24 10:30:42;;;;;;;34.58;4.90;;;;;;;9.18;96.88;101094.69;5038080;28;20167;-73
2022/11/24 10:33:34;;;;;;;22.88;3.90;;;;;;;9.29;96.42;101105.19;5062810;28;20024;-72
2022/11/24 10:36:09;;;;;;;29.92;4.88;;;;;;;9.36;96.25;101101.56;5039586;28;20437;-72
2022/11/24 10:38:58;;;;;;;17.08;4.00;;;;;;;9.49;95.99;101098.19;5064639;28;20051;-73
2022/11/24 10:41:37;;;;;;;20.27;4.32;;;;;;;9.63;94.34;101105.59;5043929;28;20041;-72
2022/11/24 10:44:02;;;;;;;21.50;5.00;;;;;;;9.60;94.71;101093.13;5063410;28;20484;-73
2022/11/24 10:46:28;;;;;;;36.80;5.00;;;;;;;9.68;94.53;101095.81;5059814;28;20090;-71
2022/11/24 10:49:02;;;;;;;30.43;5.00;;;;;;;9.72;95.05;101097.09;5044970;28;20110;-71
2022/11/24 10:51:52;;;;;;;27.52;4.65;;;;;;;9.85;95.38;101096.47;5061310;28;20028;-72
2022/11/24 10:54:21;;;;;;;19.63;4.47;;;;;;;9.96;94.56;101096.00;5064020;28;20095;-72
2022/11/24 10:56:49;;;;;;;22.48;5.68;;;;;;;9.97;93.64;101094.97;5059995;28;20033;-73
2022/11/24 10:59:40;;;;;;;32.45;5.20;;;;;;;10.00;92.78;101103.69;5053080;28;20412;-72
2022/11/24 11:02:36;;;;;;;26.58;5.55;;;;;;;10.03;92.64;101105.19;5059472;28;20040;-71
2022/11/24 11:05:43;;;;;;;25.70;5.85;;;;;;;10.07;93.40;101101.06;5060329;28;20526;-73
2022/11/24 11:08:13;;;;;;;19.73;3.78;;;;;;;10.22;93.58;101093.72;5064272;28;20040;-71
2022/11/24 11:10:43;;;;;;;27.35;5.47;;;;;;;10.09;92.37;101099.84;5045662;28;20025;-71
2022/11/24 11:13:31;;;;;;;23.95;4.53;;;;;;;10.20;91.86;101101.28;5050942;28;20481;-71
2022/11/24 11:15:58;;;;;;;20.65;4.53;;;;;;;10.24;91.92;101108.06;5044772;28;20113;-72
2022/11/24 11:18:31;;;;;;;;;;;;;;;10.33;92.21;101101.44;5064740;28;20162;-71
2022/11/24 11:21:00;;;;;;;33.03;5.13;;;;;;;10.33;91.64;101101.44;5041921;28;19999;-72
2022/11/24 11:23:37;;;;;;;24.73;4.35;;;;;;;10.42;91.42;101103.06;5062012;28;20206;-70
2022/11/24 11:26:26;;;;;;;18.58;4.70;;;;;;;10.47;91.06;101108.81;5045200;28;20440;-73
2022/11/24 11:29:12;;;;;;;17.40;4.00;;;;;;;10.49;90.65;101098.50;5059862;28;20078;-76
2022/11/24 11:31:38;;;;;;;17.98;3.83;;;;;;;10.68;90.98;101101.50;5059800;28;20036;-73
2022/11/24 11:34:04;;;;;;;25.88;4.00;;;;;;;10.72;89.88;101101.97;5063019;28;20044;-72
2022/11/24 11:36:31;;;;;;;30.83;4.60;;;;;;;10.76;89.15;101106.00;5064886;28;20112;-72
2022/11/24 11:38:58;;;;;;;22.90;4.68;;;;;;;10.73;89.04;101099.03;5060719;28;20056;-73